Main page
METAR-TAF:

METAR-TAF

Airports :

Geneva Airport

Geneva, Switzerland

latitude: 46-15N, longitude: 006-08E, elevation: 420 m

Current weather observation

The report was made 11 minutes ago, at 18:50 UTC
Wind 4 kt from the Southwest
Temperature 13°C
Humidity 58%
Pressure 1006 hPa
Visibility 10 km or more
no clouds below 1500 m and no cumulonimbus

METAR: LSGG 241850Z 23004KT CAVOK 13/05 Q1006 NOSIG

Time: 21:01 (19:01 UTC)

Forecast

The report was made 1 hour and 36 minutes ago, at 17:25 UTC
Forecast valid from 24 at 18 UTC to 25 at 24 UTC
Wind 3 kt from variable directions
Visibility 10 km or more
no clouds below 1500 m and no cumulonimbus
Becoming
from 25 at 12 UTC to 25 at 14 UTC
Wind 10 kt from the Southwest
Visibility 10 km or more
Broken clouds at a height of 9000 ft
Becoming
from 25 at 17 UTC to 25 at 19 UTC
rain

TAF: LSGG 241725Z 2418/2524 VRB03KT CAVOK TX18/2515Z TN10/2505Z BECMG 2512/2514 23010KT 9999 BKN090 BECMG 2517/2519 RA

Weather observations and forecasts of more than 4000 airports (METAR and TAF reports).

The available stations are represented by yellow and red dots on the map.

Hover mouse over dot to see the name of the station.

Then click to see weather observations and forecasts.

To change the map : click on the green buttons with a black cross to zoom in, on the green button with a dash to zoom out, or on the green arrows for adjacent maps.


METAR-TAF: